sensor_id;sensor_type;location;lat;lon;timestamp;pressure;altitude;pressure_sealevel;temperature;humidity
50684;BME280;36654;45.042;38.994;2023-06-14T00:02:17;100301.91;;;18.97;86.38
50684;BME280;36654;45.042;38.994;2023-06-14T00:04:43;100336.72;;;19.30;85.80
50684;BME280;36654;45.042;38.994;2023-06-14T00:07:08;100350.84;;;19.36;85.98
50684;BME280;36654;45.042;38.994;2023-06-14T00:09:37;100353.50;;;19.38;86.19
50684;BME280;36654;45.042;38.994;2023-06-14T00:12:03;100357.00;;;19.40;86.04
50684;BME280;36654;45.042;38.994;2023-06-14T00:14:29;100351.66;;;19.38;85.99
50684;BME280;36654;45.042;38.994;2023-06-14T00:16:54;100346.16;;;19.43;85.99
50684;BME280;36654;45.042;38.994;2023-06-14T00:19:26;100328.47;;;19.36;85.67
50684;BME280;36654;45.042;38.994;2023-06-14T00:21:52;100351.31;;;19.49;85.91
50684;BME280;36654;45.042;38.994;2023-06-14T00:24:18;100351.25;;;19.52;85.71
50684;BME280;36654;45.042;38.994;2023-06-14T00:26:44;100368.16;;;19.56;85.56
50684;BME280;36654;45.042;38.994;2023-06-14T00:29:09;100353.28;;;19.44;85.56
50684;BME280;36654;45.042;38.994;2023-06-14T00:31:35;100365.59;;;19.51;85.80
50684;BME280;36654;45.042;38.994;2023-06-14T00:34:01;100360.19;;;19.53;85.79
50684;BME280;36654;45.042;38.994;2023-06-14T00:36:26;100375.97;;;19.64;85.69
50684;BME280;36654;45.042;38.994;2023-06-14T00:38:52;100367.16;;;19.58;85.36
50684;BME280;36654;45.042;38.994;2023-06-14T00:41:18;100373.25;;;19.65;85.62
50684;BME280;36654;45.042;38.994;2023-06-14T00:43:43;100359.94;;;19.60;85.58
50684;BME280;36654;45.042;38.994;2023-06-14T00:46:09;100346.06;;;19.46;85.52
50684;BME280;36654;45.042;38.994;2023-06-14T00:48:36;100383.06;;;19.68;85.41
50684;BME280;36654;45.042;38.994;2023-06-14T00:51:02;100304.88;;;19.17;85.34
50684;BME280;36654;45.042;38.994;2023-06-14T00:53:30;100388.44;;;19.68;85.41
50684;BME280;36654;45.042;38.994;2023-06-14T00:55:57;100348.72;;;19.48;85.78
50684;BME280;36654;45.042;38.994;2023-06-14T00:58:22;100390.19;;;19.69;85.90
50684;BME280;36654;45.042;38.994;2023-06-14T01:00:48;100380.44;;;19.65;85.96
50684;BME280;36654;45.042;38.994;2023-06-14T01:03:14;100379.50;;;19.66;86.19
50684;BME280;36654;45.042;38.994;2023-06-14T01:05:44;100361.06;;;19.53;86.16
50684;BME280;36654;45.042;38.994;2023-06-14T01:08:58;100336.28;;;19.44;86.58
50684;BME280;36654;45.042;38.994;2023-06-14T01:11:45;100389.19;;;19.71;86.69
50684;BME280;36654;45.042;38.994;2023-06-14T01:14:16;100391.88;;;19.71;86.58
50684;BME280;36654;45.042;38.994;2023-06-14T01:16:43;100386.69;;;19.65;86.72
50684;BME280;36654;45.042;38.994;2023-06-14T01:19:12;100359.19;;;19.57;86.56
50684;BME280;36654;45.042;38.994;2023-06-14T01:21:39;100385.59;;;19.72;86.45
50684;BME280;36654;45.042;38.994;2023-06-14T01:24:08;100377.56;;;19.71;86.24
50684;BME280;36654;45.042;38.994;2023-06-14T01:26:35;100373.19;;;19.67;86.01
50684;BME280;36654;45.042;38.994;2023-06-14T01:29:03;100383.94;;;19.67;86.10
50684;BME280;36654;45.042;38.994;2023-06-14T01:31:30;100379.50;;;19.66;86.29
50684;BME280;36654;45.042;38.994;2023-06-14T01:34:05;100317.81;;;19.33;87.00
50684;BME280;36654;45.042;38.994;2023-06-14T01:36:31;100330.31;;;19.34;87.18
50684;BME280;36654;45.042;38.994;2023-06-14T01:38:58;100365.50;;;19.54;88.02
50684;BME280;36654;45.042;38.994;2023-06-14T01:41:25;100373.78;;;19.48;88.73
50684;BME280;36654;45.042;38.994;2023-06-14T01:43:52;100330.91;;;19.15;89.05
50684;BME280;36654;45.042;38.994;2023-06-14T01:46:20;100351.38;;;19.20;89.69
50684;BME280;36654;45.042;38.994;2023-06-14T01:48:45;100367.06;;;19.33;90.27
50684;BME280;36654;45.042;38.994;2023-06-14T01:51:11;100358.53;;;19.19;90.73
50684;BME280;36654;45.042;38.994;2023-06-14T01:53:37;100325.03;;;19.03;91.38
50684;BME280;36654;45.042;38.994;2023-06-14T01:56:02;100328.81;;;18.95;91.82
50684;BME280;36654;45.042;38.994;2023-06-14T01:58:28;100370.25;;;19.16;92.11
50684;BME280;36654;45.042;38.994;2023-06-14T02:00:54;100305.22;;;18.75;92.53
50684;BME280;36654;45.042;38.994;2023-06-14T02:03:23;100356.09;;;19.11;93.27
50684;BME280;36654;45.042;38.994;2023-06-14T02:05:49;100357.84;;;19.12;93.49
50684;BME280;36654;45.042;38.994;2023-06-14T02:08:15;100352.50;;;19.12;93.45
50684;BME280;36654;45.042;38.994;2023-06-14T02:10:41;100339.97;;;19.11;93.62
50684;BME280;36654;45.042;38.994;2023-06-14T02:13:06;100335.41;;;19.15;94.22
50684;BME280;36654;45.042;38.994;2023-06-14T02:15:32;100332.56;;;19.20;94.44
50684;BME280;36654;45.042;38.994;2023-06-14T02:18:01;100339.34;;;19.31;94.71
50684;BME280;36654;45.042;38.994;2023-06-14T02:20:27;100324.94;;;19.34;94.71
50684;BME280;36654;45.042;38.994;2023-06-14T02:22:54;100315.22;;;19.30;94.78
50684;BME280;36654;45.042;38.994;2023-06-14T02:25:19;100317.59;;;19.39;94.57
50684;BME280;36654;45.042;38.994;2023-06-14T02:27:45;100322.91;;;19.42;94.07
50684;BME280;36654;45.042;38.994;2023-06-14T02:30:11;100275.00;;;19.27;93.74
50684;BME280;36654;45.042;38.994;2023-06-14T02:32:37;100302.94;;;19.49;93.71
50684;BME280;36654;45.042;38.994;2023-06-14T02:35:04;100290.22;;;19.54;93.45
50684;BME280;36654;45.042;38.994;2023-06-14T02:37:29;100302.38;;;19.68;93.54
50684;BME280;36654;45.042;38.994;2023-06-14T02:39:56;100260.75;;;19.51;93.54
50684;BME280;36654;45.042;38.994;2023-06-14T02:42:21;100310.97;;;19.79;93.24
50684;BME280;36654;45.042;38.994;2023-06-14T02:44:47;100296.50;;;19.83;93.25
50684;BME280;36654;45.042;38.994;2023-06-14T02:47:17;100307.13;;;19.86;93.12
50684;BME280;36654;45.042;38.994;2023-06-14T02:49:43;100274.28;;;19.76;92.39
50684;BME280;36654;45.042;38.994;2023-06-14T02:52:11;100254.06;;;19.65;92.23
50684;BME280;36654;45.042;38.994;2023-06-14T02:54:37;100293.75;;;19.85;92.08
50684;BME280;36654;45.042;38.994;2023-06-14T02:57:03;100266.19;;;19.78;92.22
50684;BME280;36654;45.042;38.994;2023-06-14T02:59:28;100295.97;;;19.98;92.23
50684;BME280;36654;45.042;38.994;2023-06-14T03:01:55;100267.84;;;19.82;92.24
50684;BME280;36654;45.042;38.994;2023-06-14T03:04:20;100299.25;;;20.07;91.76
50684;BME280;36654;45.042;38.994;2023-06-14T03:06:46;100282.91;;;20.13;91.75
50684;BME280;36654;45.042;38.994;2023-06-14T03:09:15;100289.72;;;20.23;91.05
50684;BME280;36654;45.042;38.994;2023-06-14T03:11:41;100276.94;;;20.30;90.44
50684;BME280;36654;45.042;38.994;2023-06-14T03:14:07;100273.47;;;20.26;89.99
50684;BME280;36654;45.042;38.994;2023-06-14T03:16:34;100267.88;;;20.32;89.78
50684;BME280;36654;45.042;38.994;2023-06-14T03:18:59;100288.97;;;20.44;89.50
50684;BME280;36654;45.042;38.994;2023-06-14T03:21:25;100282.34;;;20.53;89.19
50684;BME280;36654;45.042;38.994;2023-06-14T03:23:54;100266.47;;;20.45;88.99
50684;BME280;36654;45.042;38.994;2023-06-14T03:26:20;100272.44;;;20.54;88.71
50684;BME280;36654;45.042;38.994;2023-06-14T03:28:46;100284.44;;;20.70;87.98
50684;BME280;36654;45.042;38.994;2023-06-14T03:31:12;100285.97;;;20.77;87.88
50684;BME280;36654;45.042;38.994;2023-06-14T03:33:39;100282.91;;;20.86;87.54
50684;BME280;36654;45.042;38.994;2023-06-14T03:36:05;100287.94;;;20.96;87.54
50684;BME280;36654;45.042;38.994;2023-06-14T03:38:32;100283.25;;;21.01;87.07
50684;BME280;36654;45.042;38.994;2023-06-14T03:40:58;100291.03;;;21.08;86.79
50684;BME280;36654;45.042;38.994;2023-06-14T03:43:24;100298.81;;;21.16;86.58
50684;BME280;36654;45.042;38.994;2023-06-14T03:45:50;100282.06;;;21.08;86.22
50684;BME280;36654;45.042;38.994;2023-06-14T03:48:16;100303.03;;;21.23;86.21
50684;BME280;36654;45.042;38.994;2023-06-14T03:50:41;100282.78;;;21.13;86.01
50684;BME280;36654;45.042;38.994;2023-06-14T03:53:08;100300.28;;;21.25;85.92
50684;BME280;36654;45.042;38.994;2023-06-14T03:55:34;100304.81;;;21.24;85.17
50684;BME280;36654;45.042;38.994;2023-06-14T03:58:00;100311.97;;;21.24;85.05
50684;BME280;36654;45.042;38.994;2023-06-14T04:00:26;100316.50;;;21.23;85.14
50684;BME280;36654;45.042;38.994;2023-06-14T04:02:52;100311.38;;;21.17;85.08
50684;BME280;36654;45.042;38.994;2023-06-14T04:05:18;100324.84;;;21.17;84.90
50684;BME280;36654;45.042;38.994;2023-06-14T04:07:47;100328.09;;;21.25;85.30
50684;BME280;36654;45.042;38.994;2023-06-14T04:10:14;100342.88;;;21.39;85.41
50684;BME280;36654;45.042;38.994;2023-06-14T04:12:41;100301.47;;;21.18;85.05
50684;BME280;36654;45.042;38.994;2023-06-14T04:15:08;100351.66;;;21.44;85.43
50684;BME280;36654;45.042;38.994;2023-06-14T04:17:39;100311.19;;;21.22;85.50
50684;BME280;36654;45.042;38.994;2023-06-14T04:20:04;100358.22;;;21.60;84.96
50684;BME280;36654;45.042;38.994;2023-06-14T04:22:31;100345.69;;;21.59;84.87
50684;BME280;36654;45.042;38.994;2023-06-14T04:24:58;100343.91;;;21.58;84.54
50684;BME280;36654;45.042;38.994;2023-06-14T04:27:26;100376.41;;;21.77;84.29
50684;BME280;36654;45.042;38.994;2023-06-14T04:29:55;100361.97;;;21.78;84.11
50684;BME280;36654;45.042;38.994;2023-06-14T04:32:26;100358.28;;;21.81;84.04
50684;BME280;36654;45.042;38.994;2023-06-14T04:35:01;100372.13;;;21.93;83.61
50684;BME280;36654;45.042;38.994;2023-06-14T04:37:29;100372.75;;;22.00;83.41
50684;BME280;36654;45.042;38.994;2023-06-14T04:39:56;100378.47;;;22.14;82.73
50684;BME280;36654;45.042;38.994;2023-06-14T04:42:22;100381.91;;;22.18;82.51
50684;BME280;36654;45.042;38.994;2023-06-14T04:44:51;100367.09;;;22.06;82.33
50684;BME280;36654;45.042;38.994;2023-06-14T04:47:21;100388.31;;;22.15;82.27
50684;BME280;36654;45.042;38.994;2023-06-14T04:49:46;100387.44;;;22.15;81.64
50684;BME280;36654;45.042;38.994;2023-06-14T04:52:12;100397.47;;;22.11;81.95
50684;BME280;36654;45.042;38.994;2023-06-14T04:54:39;100402.00;;;22.11;82.03
50684;BME280;36654;45.042;38.994;2023-06-14T04:57:09;100409.91;;;22.15;81.69
50684;BME280;36654;45.042;38.994;2023-06-14T04:59:40;100377.03;;;21.84;81.48
50684;BME280;36654;45.042;38.994;2023-06-14T05:02:06;100309.75;;;21.35;81.89
50684;BME280;36654;45.042;38.994;2023-06-14T05:04:32;100429.13;;;22.08;82.14
50684;BME280;36654;45.042;38.994;2023-06-14T05:07:01;100378.13;;;21.80;82.06
50684;BME280;36654;45.042;38.994;2023-06-14T05:12:13;100314.09;;;21.61;81.51
50684;BME280;36654;45.042;38.994;2023-06-14T05:14:50;100305.66;;;21.70;81.97
50684;BME280;36654;45.042;38.994;2023-06-14T05:17:15;100340.00;;;22.09;81.51
50684;BME280;36654;45.042;38.994;2023-06-14T05:19:51;100329.78;;;22.38;81.03
50684;BME280;36654;45.042;38.994;2023-06-14T05:22:20;100343.97;;;23.03;78.99
50684;BME280;36654;45.042;38.994;2023-06-14T05:25:32;100283.44;;;23.43;75.70
50684;BME280;36654;45.042;38.994;2023-06-14T05:27:57;100338.13;;;24.40;72.26
50684;BME280;36654;45.042;38.994;2023-06-14T05:30:25;100317.19;;;24.61;70.31
50684;BME280;36654;45.042;38.994;2023-06-14T05:32:51;100346.16;;;24.77;69.61
50684;BME280;36654;45.042;38.994;2023-06-14T05:35:24;100394.75;;;24.97;68.78
50684;BME280;36654;45.042;38.994;2023-06-14T05:37:52;100297.44;;;24.24;68.64
50684;BME280;36654;45.042;38.994;2023-06-14T05:40:21;100296.78;;;24.02;68.90
50684;BME280;36654;45.042;38.994;2023-06-14T05:42:49;100399.59;;;24.57;69.43
50684;BME280;36654;45.042;38.994;2023-06-14T05:45:18;100360.66;;;24.23;70.41
50684;BME280;36654;45.042;38.994;2023-06-14T05:47:46;100297.06;;;23.78;70.53
50684;BME280;36654;45.042;38.994;2023-06-14T05:50:32;100382.03;;;24.29;71.06
50684;BME280;36654;45.042;38.994;2023-06-14T05:53:00;100377.16;;;24.36;69.91
50684;BME280;36654;45.042;38.994;2023-06-14T05:55:25;100460.00;;;24.77;69.67
50684;BME280;36654;45.042;38.994;2023-06-14T05:57:54;100386.00;;;24.22;69.70
50684;BME280;36654;45.042;38.994;2023-06-14T06:00:30;100350.09;;;23.82;69.90
50684;BME280;36654;45.042;38.994;2023-06-14T06:02:59;100354.13;;;23.74;70.17
50684;BME280;36654;45.042;38.994;2023-06-14T06:05:26;100415.91;;;24.02;70.45
50684;BME280;36654;45.042;38.994;2023-06-14T06:07:52;100390.16;;;23.93;70.40
50684;BME280;36654;45.042;38.994;2023-06-14T06:10:34;100445.13;;;24.31;70.58
50684;BME280;36654;45.042;38.994;2023-06-14T06:13:27;100379.13;;;24.15;70.21
50684;BME280;36654;45.042;38.994;2023-06-14T06:15:54;100418.31;;;24.62;69.87
50684;BME280;36654;45.042;38.994;2023-06-14T06:18:22;100469.31;;;24.88;69.83
50684;BME280;36654;45.042;38.994;2023-06-14T06:20:48;100455.69;;;24.90;69.47
50684;BME280;36654;45.042;38.994;2023-06-14T06:23:14;100452.59;;;24.80;69.48
50684;BME280;36654;45.042;38.994;2023-06-14T06:25:42;100466.78;;;24.85;69.59
50684;BME280;36654;45.042;38.994;2023-06-14T06:28:08;100474.25;;;24.80;69.96
50684;BME280;36654;45.042;38.994;2023-06-14T06:30:34;100481.06;;;24.71;70.49
50684;BME280;36654;45.042;38.994;2023-06-14T06:33:01;100473.06;;;24.68;70.71
50684;BME280;36654;45.042;38.994;2023-06-14T06:35:27;100460.00;;;24.59;70.65
50684;BME280;36654;45.042;38.994;2023-06-14T06:37:53;100424.56;;;24.45;70.10
50684;BME280;36654;45.042;38.994;2023-06-14T06:40:18;100484.25;;;24.80;70.07
50684;BME280;36654;45.042;38.994;2023-06-14T06:42:44;100484.06;;;24.83;70.13
50684;BME280;36654;45.042;38.994;2023-06-14T06:45:10;100471.63;;;24.79;70.32
50684;BME280;36654;45.042;38.994;2023-06-14T06:47:35;100452.59;;;24.80;70.04
50684;BME280;36654;45.042;38.994;2023-06-14T06:50:01;100434.19;;;24.69;70.42
50684;BME280;36654;45.042;38.994;2023-06-14T06:52:27;100485.16;;;24.96;70.28
50684;BME280;36654;45.042;38.994;2023-06-14T06:54:52;100470.13;;;24.90;69.89
50684;BME280;36654;45.042;38.994;2023-06-14T06:57:20;100474.19;;;24.99;69.14
50684;BME280;36654;45.042;38.994;2023-06-14T06:59:48;100477.84;;;24.98;69.20
50684;BME280;36654;45.042;38.994;2023-06-14T07:02:14;100471.94;;;25.07;69.45
50684;BME280;36654;45.042;38.994;2023-06-14T07:04:39;100472.09;;;25.39;68.71
50684;BME280;36654;45.042;38.994;2023-06-14T07:07:05;100465.44;;;25.60;67.96
50684;BME280;36654;45.042;38.994;2023-06-14T07:09:31;100474.78;;;25.88;66.39
50684;BME280;36654;45.042;38.994;2023-06-14T07:11:56;100462.91;;;26.07;66.35
50684;BME280;36654;45.042;38.994;2023-06-14T07:14:22;100474.06;;;26.32;65.50
50684;BME280;36654;45.042;38.994;2023-06-14T07:16:48;100466.34;;;26.40;64.37
50684;BME280;36654;45.042;38.994;2023-06-14T07:19:16;100469.16;;;26.55;64.39
50684;BME280;36654;45.042;38.994;2023-06-14T07:21:42;100472.41;;;26.61;63.98
50684;BME280;36654;45.042;38.994;2023-06-14T07:24:08;100464.50;;;26.57;63.63
50684;BME280;36654;45.042;38.994;2023-06-14T07:26:34;100469.94;;;26.57;62.35
50684;BME280;36654;45.042;38.994;2023-06-14T07:29:00;100474.75;;;26.52;62.66
50684;BME280;36654;45.042;38.994;2023-06-14T07:31:26;100476.53;;;26.53;62.01
50684;BME280;36654;45.042;38.994;2023-06-14T07:33:53;100465.47;;;26.56;62.18
50684;BME280;36654;45.042;38.994;2023-06-14T07:36:18;100466.50;;;26.69;61.51
50684;BME280;36654;45.042;38.994;2023-06-14T07:38:44;100451.31;;;26.65;61.45
50684;BME280;36654;45.042;38.994;2023-06-14T07:41:10;100471.56;;;26.75;61.22
50684;BME280;36654;45.042;38.994;2023-06-14T07:43:35;100467.31;;;26.85;60.56
50684;BME280;36654;45.042;38.994;2023-06-14T07:46:01;100445.19;;;26.92;60.05
50684;BME280;36654;45.042;38.994;2023-06-14T07:48:27;100436.44;;;26.86;59.73
50684;BME280;36654;45.042;38.994;2023-06-14T07:50:53;100409.25;;;26.86;59.75
50684;BME280;36654;45.042;38.994;2023-06-14T07:53:19;100447.88;;;27.22;58.58
50684;BME280;36654;45.042;38.994;2023-06-14T07:55:44;100442.63;;;27.33;57.88
50684;BME280;36654;45.042;38.994;2023-06-14T07:58:12;100439.03;;;27.47;56.64
50684;BME280;36654;45.042;38.994;2023-06-14T08:00:38;100437.88;;;27.51;55.94
50684;BME280;36654;45.042;38.994;2023-06-14T08:03:04;100377.47;;;27.16;56.53
50684;BME280;36654;45.042;38.994;2023-06-14T08:05:29;100445.63;;;27.57;56.21
50684;BME280;36654;45.042;38.994;2023-06-14T08:07:55;100431.16;;;27.42;55.80
50684;BME280;36654;45.042;38.994;2023-06-14T08:10:23;100416.47;;;27.30;54.60
50684;BME280;36654;45.042;38.994;2023-06-14T08:12:49;100425.22;;;27.36;54.66
50684;BME280;36654;45.042;38.994;2023-06-14T08:15:17;100415.53;;;27.31;54.82
50684;BME280;36654;45.042;38.994;2023-06-14T08:17:43;100451.84;;;27.59;55.44
50684;BME280;36654;45.042;38.994;2023-06-14T08:20:12;100401.69;;;27.49;55.43
50684;BME280;36654;45.042;38.994;2023-06-14T08:22:39;100415.47;;;27.60;55.25
50684;BME280;36654;45.042;38.994;2023-06-14T08:25:07;100325.81;;;27.01;55.37
50684;BME280;36654;45.042;38.994;2023-06-14T08:27:34;100419.78;;;27.50;55.52
50684;BME280;36654;45.042;38.994;2023-06-14T08:30:00;100439.03;;;27.61;56.01
50684;BME280;36654;45.042;38.994;2023-06-14T08:32:25;100396.19;;;27.36;56.07
50684;BME280;36654;45.042;38.994;2023-06-14T08:35:11;100381.50;;;27.24;56.58
50684;BME280;36654;45.042;38.994;2023-06-14T08:37:39;100420.97;;;27.46;55.89
50684;BME280;36654;45.042;38.994;2023-06-14T08:40:06;100434.56;;;27.46;56.33
50684;BME280;36654;45.042;38.994;2023-06-14T08:42:38;100427.56;;;27.27;57.11
50684;BME280;36654;45.042;38.994;2023-06-14T08:45:07;100313.38;;;26.54;57.95
50684;BME280;36654;45.042;38.994;2023-06-14T08:47:33;100392.31;;;26.96;58.64
50684;BME280;36654;45.042;38.994;2023-06-14T08:50:02;100408.47;;;27.13;58.68
50684;BME280;36654;45.042;38.994;2023-06-14T08:52:33;100398.06;;;27.05;58.41
50684;BME280;36654;45.042;38.994;2023-06-14T08:55:08;100399.94;;;27.05;58.33
50684;BME280;36654;45.042;38.994;2023-06-14T08:57:38;100414.91;;;27.12;58.52
50684;BME280;36654;45.042;38.994;2023-06-14T09:00:05;100430.69;;;27.21;57.78
50684;BME280;36654;45.042;38.994;2023-06-14T09:02:38;100416.88;;;27.24;57.59
50684;BME280;36654;45.042;38.994;2023-06-14T09:05:12;100417.25;;;27.18;58.12
50684;BME280;36654;45.042;38.994;2023-06-14T09:07:44;100428.25;;;27.31;57.06
50684;BME280;36654;45.042;38.994;2023-06-14T09:10:15;100431.16;;;27.28;56.00
50684;BME280;36654;45.042;38.994;2023-06-14T09:12:42;100436.00;;;27.37;56.68
50684;BME280;36654;45.042;38.994;2023-06-14T09:15:10;100427.94;;;27.36;56.87
50684;BME280;36654;45.042;38.994;2023-06-14T09:17:36;100429.13;;;27.46;57.05
50684;BME280;36654;45.042;38.994;2023-06-14T09:20:03;100428.13;;;27.47;57.08
50684;BME280;36654;45.042;38.994;2023-06-14T09:22:33;100414.75;;;27.44;57.22
50684;BME280;36654;45.042;38.994;2023-06-14T09:24:59;100395.00;;;27.40;57.73
50684;BME280;36654;45.042;38.994;2023-06-14T09:27:26;100386.53;;;27.30;58.62
50684;BME280;36654;45.042;38.994;2023-06-14T09:29:52;100409.66;;;27.38;58.09
50684;BME280;36654;45.042;38.994;2023-06-14T09:32:18;100379.31;;;27.15;57.58
50684;BME280;36654;45.042;38.994;2023-06-14T09:34:45;100415.13;;;27.38;57.59
50684;BME280;36654;45.042;38.994;2023-06-14T09:37:11;100380.13;;;27.31;57.85
50684;BME280;36654;45.042;38.994;2023-06-14T09:39:50;100362.47;;;27.24;58.21
50684;BME280;36654;45.042;38.994;2023-06-14T09:42:18;100377.22;;;27.35;58.44
50684;BME280;36654;45.042;38.994;2023-06-14T09:44:54;100405.38;;;27.48;58.21
50684;BME280;36654;45.042;38.994;2023-06-14T09:47:20;100395.28;;;27.50;57.55
50684;BME280;36654;45.042;38.994;2023-06-14T09:49:48;100392.75;;;27.47;57.30
50684;BME280;36654;45.042;38.994;2023-06-14T09:52:19;100357.38;;;27.18;57.58
50684;BME280;36654;45.042;38.994;2023-06-14T09:54:46;100408.31;;;27.30;57.26
50684;BME280;36654;45.042;38.994;2023-06-14T09:57:22;100389.44;;;27.13;57.96
50684;BME280;36654;45.042;38.994;2023-06-14T09:59:52;100316.56;;;26.61;57.73
50684;BME280;36654;45.042;38.994;2023-06-14T10:02:26;100401.72;;;27.20;57.41
50684;BME280;36654;45.042;38.994;2023-06-14T10:05:04;100403.06;;;27.27;57.06
50684;BME280;36654;45.042;38.994;2023-06-14T10:07:39;100428.34;;;27.29;57.46
50684;BME280;36654;45.042;38.994;2023-06-14T10:10:07;100418.03;;;27.20;57.97
50684;BME280;36654;45.042;38.994;2023-06-14T10:12:36;100407.16;;;27.20;59.27
50684;BME280;36654;45.042;38.994;2023-06-14T10:15:07;100388.97;;;27.21;57.69
50684;BME280;36654;45.042;38.994;2023-06-14T10:17:49;100415.13;;;27.38;57.32
50684;BME280;36654;45.042;38.994;2023-06-14T10:20:26;100391.97;;;27.30;55.66
50684;BME280;36654;45.042;38.994;2023-06-14T10:23:01;100367.19;;;27.35;54.84
50684;BME280;36654;45.042;38.994;2023-06-14T10:25:30;100333.84;;;27.17;55.36
50684;BME280;36654;45.042;38.994;2023-06-14T10:28:18;100402.06;;;27.71;55.74
50684;BME280;36654;45.042;38.994;2023-06-14T10:33:35;100372.44;;;27.38;54.23
50684;BME280;36654;45.042;38.994;2023-06-14T10:36:24;100401.97;;;27.59;54.72
50684;BME280;36654;45.042;38.994;2023-06-14T10:39:10;100407.44;;;27.59;55.18
50684;BME280;36654;45.042;38.994;2023-06-14T10:41:39;100378.94;;;27.36;54.83
50684;BME280;36654;45.042;38.994;2023-06-14T10:46:41;100335.00;;;27.13;55.67
50684;BME280;36654;45.042;38.994;2023-06-14T10:49:11;100398.19;;;27.47;55.57
50684;BME280;36654;45.042;38.994;2023-06-14T10:51:42;100391.69;;;27.49;56.50
50684;BME280;36654;45.042;38.994;2023-06-14T10:54:15;100374.09;;;27.41;56.21
50684;BME280;36654;45.042;38.994;2023-06-14T10:59:17;100388.38;;;27.44;56.22
50684;BME280;36654;45.042;38.994;2023-06-14T11:02:27;100390.53;;;27.53;56.48
50684;BME280;36654;45.042;38.994;2023-06-14T11:05:04;100397.78;;;27.53;55.38
50684;BME280;36654;45.042;38.994;2023-06-14T11:07:41;100399.84;;;27.64;55.55
50684;BME280;36654;45.042;38.994;2023-06-14T11:10:36;100398.25;;;27.74;55.32
50684;BME280;36654;45.042;38.994;2023-06-14T11:13:08;100383.78;;;27.59;55.61
50684;BME280;36654;45.042;38.994;2023-06-14T11:15:36;100373.63;;;27.48;55.76
50684;BME280;36654;45.042;38.994;2023-06-14T11:18:14;100387.97;;;27.50;56.32
50684;BME280;36654;45.042;38.994;2023-06-14T11:20:42;100407.88;;;27.65;55.00
50684;BME280;36654;45.042;38.994;2023-06-14T11:23:07;100405.38;;;27.62;54.75
50684;BME280;36654;45.042;38.994;2023-06-14T11:25:33;100422.47;;;27.64;54.88
50684;BME280;36654;45.042;38.994;2023-06-14T11:27:59;100410.16;;;27.59;55.08
50684;BME280;36654;45.042;38.994;2023-06-14T11:30:25;100422.47;;;27.64;54.98
50684;BME280;36654;45.042;38.994;2023-06-14T11:32:52;100398.19;;;27.47;55.04
50684;BME280;36654;45.042;38.994;2023-06-14T11:35:21;100399.75;;;27.51;54.72
50684;BME280;36654;45.042;38.994;2023-06-14T11:37:50;100415.88;;;27.54;55.33
50684;BME280;36654;45.042;38.994;2023-06-14T11:40:17;100416.09;;;27.51;55.35
50684;BME280;36654;45.042;38.994;2023-06-14T11:42:43;100404.03;;;27.41;55.58
50684;BME280;36654;45.042;38.994;2023-06-14T11:45:10;100411.03;;;27.45;55.61
50684;BME280;36654;45.042;38.994;2023-06-14T11:47:38;100413.75;;;27.45;55.58
50684;BME280;36654;45.042;38.994;2023-06-14T11:50:06;100402.28;;;27.40;54.99
50684;BME280;36654;45.042;38.994;2023-06-14T11:52:34;100375.84;;;27.27;55.90
50684;BME280;36654;45.042;38.994;2023-06-14T11:55:01;100326.50;;;26.76;56.73
50684;BME280;36654;45.042;38.994;2023-06-14T11:57:30;100394.69;;;27.16;57.70
50684;BME280;36654;45.042;38.994;2023-06-14T11:59:55;100397.41;;;27.16;58.08
50684;BME280;36654;45.042;38.994;2023-06-14T12:02:21;100405.69;;;27.29;58.15
50684;BME280;36654;45.042;38.994;2023-06-14T12:04:48;100395.78;;;27.28;59.77
50684;BME280;36654;45.042;38.994;2023-06-14T12:07:18;100389.09;;;27.34;60.55
50684;BME280;36654;45.042;38.994;2023-06-14T12:12:26;100407.72;;;27.54;57.81
50684;BME280;36654;45.042;38.994;2023-06-14T12:14:52;100373.34;;;27.39;56.66
50684;BME280;36654;45.042;38.994;2023-06-14T12:17:19;100397.78;;;27.53;54.68
50684;BME280;36654;45.042;38.994;2023-06-14T12:19:45;100371.78;;;27.35;56.86
50684;BME280;36654;45.042;38.994;2023-06-14T12:22:15;100402.88;;;27.45;57.13
50684;BME280;36654;45.042;38.994;2023-06-14T12:24:45;100392.88;;;27.31;58.11
50684;BME280;36654;45.042;38.994;2023-06-14T12:27:12;100352.53;;;27.09;58.91
50684;BME280;36654;45.042;38.994;2023-06-14T12:29:42;100394.91;;;27.27;59.26
50684;BME280;36654;45.042;38.994;2023-06-14T12:32:11;100359.53;;;26.99;59.75
50684;BME280;36654;45.042;38.994;2023-06-14T12:34:37;100387.03;;;27.08;59.22
50684;BME280;36654;45.042;38.994;2023-06-14T12:37:02;100281.41;;;26.43;59.44
50684;BME280;36654;45.042;38.994;2023-06-14T12:39:31;100352.72;;;26.92;59.84
50684;BME280;36654;45.042;38.994;2023-06-14T12:42:00;100389.44;;;27.13;59.66
50684;BME280;36654;45.042;38.994;2023-06-14T12:44:25;100345.16;;;26.97;59.75
50684;BME280;36654;45.042;38.994;2023-06-14T12:46:51;100378.53;;;27.13;59.81
50684;BME280;36654;45.042;38.994;2023-06-14T12:49:19;100371.78;;;27.20;59.54
50684;BME280;36654;45.042;38.994;2023-06-14T12:51:45;100372.03;;;27.16;59.63
50684;BME280;36654;45.042;38.994;2023-06-14T12:54:11;100330.56;;;26.98;60.35
50684;BME280;36654;45.042;38.994;2023-06-14T12:56:37;100371.91;;;27.19;60.29
50684;BME280;36654;45.042;38.994;2023-06-14T12:59:03;100374.78;;;27.01;60.10
50684;BME280;36654;45.042;38.994;2023-06-14T13:01:28;100346.28;;;26.78;59.67